createdAt,value
2022-10-13T00:01:14.504Z,1.27
2022-10-13T00:03:42.835Z,1.67
2022-10-13T00:06:11.677Z,1.17
2022-10-13T00:08:41.082Z,1.40
2022-10-13T00:11:22.110Z,1.70
2022-10-13T00:13:50.988Z,1.07
2022-10-13T00:16:21.457Z,1.43
2022-10-13T00:18:49.506Z,1.33
2022-10-13T00:21:21.278Z,1.27
2022-10-13T00:23:50.319Z,1.37
2022-10-13T00:26:18.884Z,1.63
2022-10-13T00:28:51.222Z,1.73
2022-10-13T00:31:23.157Z,1.13
2022-10-13T00:33:50.940Z,1.70
2022-10-13T00:36:18.142Z,1.43
2022-10-13T00:38:45.294Z,0.80
2022-10-13T00:41:12.837Z,1.80
2022-10-13T00:44:07.291Z,1.07
2022-10-13T00:46:37.236Z,1.23
2022-10-13T00:49:13.350Z,1.20
2022-10-13T00:51:46.838Z,1.50
2022-10-13T00:54:21.232Z,0.67
2022-10-13T00:56:50.983Z,1.47
2022-10-13T00:59:27.468Z,1.23
2022-10-13T01:01:57.660Z,1.23
2022-10-13T01:04:30.968Z,0.63
2022-10-13T01:06:59.064Z,1.00
2022-10-13T01:09:26.159Z,1.67
2022-10-13T01:12:21.244Z,1.83
2022-10-13T01:14:58.104Z,1.93
2022-10-13T01:17:54.395Z,2.10
2022-10-13T01:20:27.474Z,1.10
2022-10-13T01:23:58.983Z,1.40
2022-10-13T01:26:59.889Z,1.43
2022-10-13T01:30:12.981Z,1.47
2022-10-13T01:32:53.961Z,1.10
2022-10-13T01:35:39.889Z,1.27
2022-10-13T01:38:35.113Z,1.77
2022-10-13T01:41:39.259Z,1.33
2022-10-13T01:44:18.550Z,2.40
2022-10-13T01:46:48.717Z,1.53
2022-10-13T01:49:20.188Z,2.03
2022-10-13T01:51:49.800Z,1.40
2022-10-13T01:54:17.274Z,1.13
2022-10-13T01:56:56.532Z,2.00
2022-10-13T01:59:27.861Z,1.47
2022-10-13T02:02:29.508Z,1.33
2022-10-13T02:05:49.595Z,1.30
2022-10-13T02:08:28.460Z,1.50
2022-10-13T02:11:20.463Z,0.87
2022-10-13T02:13:59.543Z,1.27
2022-10-13T02:16:31.991Z,1.33
2022-10-13T02:18:59.693Z,1.20
2022-10-13T02:21:27.358Z,1.63
2022-10-13T02:23:54.464Z,1.60
2022-10-13T02:26:22.643Z,1.60
2022-10-13T02:28:49.802Z,1.87
2022-10-13T02:31:17.564Z,1.90
2022-10-13T02:33:44.642Z,1.77
2022-10-13T02:36:12.631Z,1.27
2022-10-13T02:38:40.113Z,1.60
2022-10-13T02:41:07.132Z,0.90
2022-10-13T02:43:37.296Z,1.73
2022-10-13T02:46:04.840Z,1.97
2022-10-13T02:48:32.624Z,1.87
2022-10-13T02:50:59.718Z,2.17
2022-10-13T02:53:27.063Z,1.43
2022-10-13T02:55:54.539Z,1.80
2022-10-13T02:58:21.696Z,1.30
2022-10-13T03:00:48.899Z,1.67
2022-10-13T03:03:15.958Z,1.87
2022-10-13T03:05:44.366Z,1.50
2022-10-13T03:08:11.883Z,1.67
2022-10-13T03:10:38.998Z,1.47
2022-10-13T03:13:06.227Z,1.00
2022-10-13T03:15:33.316Z,1.77
2022-10-13T03:18:00.378Z,1.60
2022-10-13T03:20:27.788Z,1.63
2022-10-13T03:22:54.875Z,1.17
2022-10-13T03:25:22.974Z,1.00
2022-10-13T03:27:50.219Z,1.30
2022-10-13T03:30:17.764Z,0.80
2022-10-13T03:32:45.206Z,6.47
2022-10-13T03:35:12.941Z,3.37
2022-10-13T03:37:40.137Z,2.90
2022-10-13T03:40:08.407Z,1.70
2022-10-13T03:42:39.999Z,1.47
2022-10-13T03:45:08.513Z,1.47
2022-10-13T03:47:36.858Z,1.63
2022-10-13T03:50:06.105Z,4.63
2022-10-13T03:52:34.878Z,2.07
2022-10-13T03:55:02.209Z,1.73
2022-10-13T03:57:29.727Z,1.30
2022-10-13T03:59:57.841Z,1.40
2022-10-13T04:02:25.303Z,1.87
2022-10-13T04:04:52.414Z,1.37
2022-10-13T04:07:19.537Z,1.50
2022-10-13T04:09:46.782Z,1.07
2022-10-13T04:12:17.174Z,1.13
2022-10-13T04:14:47.902Z,1.53
2022-10-13T04:17:15.356Z,1.23
2022-10-13T04:19:42.537Z,1.43
2022-10-13T04:22:10.179Z,1.57
2022-10-13T04:24:37.505Z,1.73
2022-10-13T04:27:04.860Z,1.30
2022-10-13T04:29:32.431Z,1.53
2022-10-13T04:32:00.272Z,1.27
2022-10-13T04:34:27.463Z,1.70
2022-10-13T04:36:55.025Z,1.47
2022-10-13T04:39:22.092Z,1.47
2022-10-13T04:41:50.928Z,1.83
2022-10-13T04:44:18.087Z,1.43
2022-10-13T04:46:45.205Z,1.63
2022-10-13T04:49:12.326Z,1.00
2022-10-13T04:51:39.894Z,1.57
2022-10-13T04:54:06.953Z,1.67
2022-10-13T04:56:34.175Z,1.13
2022-10-13T04:59:01.975Z,1.60
2022-10-13T05:01:29.130Z,1.23
2022-10-13T05:04:00.864Z,1.70
2022-10-13T05:06:32.792Z,3.30
2022-10-13T05:09:00.655Z,2.40
2022-10-13T05:11:29.604Z,1.80
2022-10-13T05:13:59.318Z,1.30
2022-10-13T05:16:28.134Z,1.47
2022-10-13T05:18:56.394Z,1.77
2022-10-13T05:21:28.330Z,1.70
2022-10-13T05:23:57.729Z,1.23
2022-10-13T05:26:29.144Z,1.83
2022-10-13T05:28:58.482Z,1.90
2022-10-13T05:31:28.116Z,1.43
2022-10-13T05:33:56.018Z,1.57
2022-10-13T05:36:33.717Z,1.87
2022-10-13T05:39:05.861Z,1.87
2022-10-13T05:41:34.654Z,1.73
2022-10-13T05:44:06.709Z,1.27
2022-10-13T05:46:34.341Z,1.73
2022-10-13T05:49:02.089Z,1.33
2022-10-13T05:51:44.847Z,1.40
2022-10-13T05:54:17.726Z,2.03
2022-10-13T05:57:03.153Z,2.17
2022-10-13T05:59:37.507Z,1.50
2022-10-13T06:02:09.604Z,1.80
2022-10-13T06:04:44.342Z,2.77
2022-10-13T06:07:12.725Z,1.23
2022-10-13T06:09:41.840Z,1.97
2022-10-13T06:12:10.522Z,1.87
2022-10-13T06:14:37.736Z,1.90
2022-10-13T06:17:05.038Z,1.93
2022-10-13T06:19:32.540Z,2.07
2022-10-13T06:22:03.419Z,1.90
2022-10-13T06:24:31.735Z,1.73
2022-10-13T06:26:58.909Z,1.57
2022-10-13T06:29:26.544Z,1.77
2022-10-13T06:31:54.016Z,1.93
2022-10-13T06:34:21.618Z,2.00
2022-10-13T06:36:48.741Z,1.73
2022-10-13T06:39:16.198Z,1.53
2022-10-13T06:41:43.882Z,1.20
2022-10-13T06:44:11.464Z,2.33
2022-10-13T06:46:38.569Z,2.60
2022-10-13T06:49:05.934Z,1.87
2022-10-13T06:51:33.381Z,2.40
2022-10-13T06:54:00.576Z,2.00
2022-10-13T06:56:29.851Z,1.43
2022-10-13T06:58:56.953Z,2.43
2022-10-13T07:01:24.037Z,2.50
2022-10-13T07:03:53.551Z,2.10
2022-10-13T07:06:21.310Z,2.13
2022-10-13T07:08:48.518Z,2.60
2022-10-13T07:11:16.749Z,1.73
2022-10-13T07:14:04.099Z,2.27
2022-10-13T07:16:31.891Z,2.47
2022-10-13T07:18:59.134Z,2.07
2022-10-13T07:21:26.571Z,2.80
2022-10-13T07:23:54.102Z,2.40
2022-10-13T07:26:21.415Z,1.67
2022-10-13T07:28:49.067Z,2.80
2022-10-13T07:31:19.761Z,1.97
2022-10-13T07:33:50.312Z,1.43
2022-10-13T07:36:18.400Z,2.03
2022-10-13T07:38:46.907Z,2.97
2022-10-13T07:41:14.673Z,1.87
2022-10-13T07:43:42.308Z,2.07
2022-10-13T07:46:12.237Z,2.97
2022-10-13T07:48:40.242Z,2.17
2022-10-13T07:51:13.092Z,1.90
2022-10-13T07:53:42.650Z,1.83
2022-10-13T07:56:13.298Z,2.83
2022-10-13T07:58:44.971Z,2.47
2022-10-13T08:01:13.268Z,2.60
2022-10-13T08:03:45.562Z,2.93
2022-10-13T08:06:17.594Z,2.50
2022-10-13T08:08:45.321Z,2.03
2022-10-13T08:11:16.652Z,2.50
2022-10-13T08:13:51.717Z,2.23
2022-10-13T08:16:19.805Z,2.33
2022-10-13T08:18:48.655Z,2.33
2022-10-13T08:21:56.822Z,2.37
2022-10-13T08:24:12.696Z,2.97
2022-10-13T08:26:40.742Z,2.67
2022-10-13T08:29:24.285Z,2.40
2022-10-13T08:31:53.917Z,3.13
2022-10-13T08:34:25.702Z,3.57
2022-10-13T08:36:56.387Z,2.33
2022-10-13T08:39:25.226Z,2.57
2022-10-13T08:41:54.372Z,2.43
2022-10-13T08:45:06.211Z,2.57
2022-10-13T08:47:45.437Z,2.53
2022-10-13T08:50:25.223Z,3.10
2022-10-13T08:53:02.848Z,2.97
2022-10-13T08:55:40.196Z,2.20
2022-10-13T08:58:18.883Z,2.40
2022-10-13T09:00:46.413Z,3.10
2022-10-13T09:03:29.792Z,2.80
2022-10-13T09:06:17.060Z,3.10
2022-10-13T09:09:05.327Z,3.27
2022-10-13T09:11:40.637Z,3.30
2022-10-13T09:14:12.677Z,2.77
2022-10-13T09:16:43.726Z,2.97
2022-10-13T09:19:34.346Z,2.77
2022-10-13T09:22:33.953Z,3.23
2022-10-13T09:25:06.937Z,3.07
2022-10-13T09:28:02.709Z,3.30
2022-10-13T09:30:38.378Z,3.37
2022-10-13T09:33:05.393Z,2.80
2022-10-13T09:35:35.129Z,3.33
2022-10-13T09:38:22.351Z,3.23
2022-10-13T09:41:10.199Z,3.83
2022-10-13T09:43:46.208Z,3.50
2022-10-13T09:46:28.297Z,3.27
2022-10-13T09:49:39.061Z,3.53
2022-10-13T09:52:21.571Z,3.17
2022-10-13T09:54:56.449Z,2.33
2022-10-13T09:57:36.130Z,2.90
2022-10-13T10:00:32.640Z,3.33
2022-10-13T10:03:27.560Z,3.60
2022-10-13T10:06:05.681Z,3.50
2022-10-13T10:09:09.680Z,3.63
2022-10-13T10:11:46.677Z,3.53
2022-10-13T10:14:33.946Z,3.83
2022-10-13T10:17:28.721Z,3.20
2022-10-13T10:20:20.494Z,3.33
2022-10-13T10:23:21.333Z,3.10
2022-10-13T10:26:06.754Z,3.67
2022-10-13T10:28:37.394Z,3.97
2022-10-13T10:31:41.748Z,3.70
2022-10-13T10:34:23.343Z,3.23
2022-10-13T10:37:14.408Z,3.87
2022-10-13T10:39:54.809Z,2.90
2022-10-13T10:42:52.112Z,2.83
2022-10-13T10:45:27.811Z,3.60
2022-10-13T10:48:02.658Z,3.33
2022-10-13T10:50:32.142Z,3.80
2022-10-13T10:53:29.861Z,3.60
2022-10-13T10:56:13.861Z,2.87
2022-10-13T10:59:08.263Z,3.13
2022-10-13T11:01:48.470Z,3.03
2022-10-13T11:04:41.541Z,3.30
2022-10-13T11:07:24.727Z,3.67
2022-10-13T11:09:51.899Z,3.27
2022-10-13T11:12:22.557Z,3.00
2022-10-13T11:15:22.388Z,3.33
2022-10-13T11:17:49.786Z,3.17
2022-10-13T11:20:22.398Z,3.40
2022-10-13T11:23:01.611Z,3.40
2022-10-13T11:25:48.897Z,2.93
2022-10-13T11:28:22.393Z,3.10
2022-10-13T11:31:17.218Z,3.17
2022-10-13T11:34:00.821Z,3.00
2022-10-13T11:36:35.079Z,2.83
2022-10-13T11:39:17.022Z,2.80
2022-10-13T11:41:56.154Z,3.23
2022-10-13T11:44:54.870Z,2.90
2022-10-13T11:48:11.990Z,3.00
2022-10-13T11:50:48.578Z,3.90
2022-10-13T11:53:20.975Z,3.53
2022-10-13T11:55:55.223Z,2.90
2022-10-13T11:58:28.591Z,3.33
2022-10-13T12:01:12.074Z,3.07
2022-10-13T12:03:43.645Z,3.60
2022-10-13T12:06:16.800Z,2.70
2022-10-13T12:08:52.220Z,2.60
2022-10-13T12:11:33.353Z,2.80
2022-10-13T12:14:01.732Z,3.20
2022-10-13T12:16:30.221Z,3.00
2022-10-13T12:19:21.413Z,2.83
2022-10-13T12:21:51.843Z,2.97
2022-10-13T12:24:23.635Z,3.03
2022-10-13T12:26:52.559Z,2.90
2022-10-13T12:29:27.299Z,4.00
2022-10-13T12:31:55.490Z,3.73
2022-10-13T12:34:35.249Z,3.40
2022-10-13T12:37:31.171Z,3.27
2022-10-13T12:40:00.452Z,3.70
2022-10-13T12:42:38.260Z,3.73
2022-10-13T12:45:06.320Z,2.93
2022-10-13T12:47:45.726Z,3.70
2022-10-13T12:50:27.757Z,3.70
2022-10-13T12:53:11.236Z,3.87
2022-10-13T12:55:58.910Z,4.70
2022-10-13T12:58:30.396Z,4.17
2022-10-13T13:01:14.894Z,3.67
2022-10-13T13:03:44.326Z,3.93
2022-10-13T13:06:15.441Z,3.83
2022-10-13T13:08:43.840Z,3.17
2022-10-13T13:11:35.357Z,3.33
2022-10-13T13:14:33.475Z,3.50
2022-10-13T13:17:38.817Z,3.33
2022-10-13T13:20:20.968Z,4.27
2022-10-13T13:22:48.433Z,4.63
2022-10-13T13:25:17.001Z,4.30
2022-10-13T13:27:44.334Z,3.33
2022-10-13T13:30:18.536Z,4.10
2022-10-13T13:32:46.469Z,3.53
2022-10-13T13:35:14.891Z,3.77
2022-10-13T13:37:50.542Z,4.20
2022-10-13T13:40:21.964Z,3.50
2022-10-13T13:42:49.208Z,3.80
2022-10-13T13:45:20.550Z,3.23
2022-10-13T13:47:48.233Z,3.60
2022-10-13T13:50:31.731Z,4.03
2022-10-13T13:53:00.439Z,4.70
2022-10-13T13:55:29.786Z,3.97
2022-10-13T13:57:58.362Z,3.60
2022-10-13T14:00:27.242Z,3.47
2022-10-13T14:02:55.433Z,3.83
2022-10-13T14:05:22.973Z,4.07
2022-10-13T14:07:52.796Z,4.13
2022-10-13T14:10:20.585Z,3.70
2022-10-13T14:12:47.854Z,4.13
2022-10-13T14:15:15.067Z,3.93
2022-10-13T14:17:42.504Z,4.10
2022-10-13T14:20:10.928Z,3.70
2022-10-13T14:22:39.499Z,3.20
2022-10-13T14:25:08.319Z,3.80
2022-10-13T14:27:37.139Z,3.93
2022-10-13T14:30:07.336Z,4.57
2022-10-13T14:32:37.167Z,3.60
2022-10-13T14:35:05.836Z,3.77
2022-10-13T14:37:34.004Z,3.73
2022-10-13T14:40:01.942Z,4.37
2022-10-13T14:42:29.123Z,4.40
2022-10-13T14:44:56.165Z,3.80
2022-10-13T14:47:23.745Z,3.97
2022-10-13T14:49:51.222Z,4.33
2022-10-13T14:52:18.385Z,4.43
2022-10-13T14:54:46.225Z,4.97
2022-10-13T14:57:16.128Z,3.77
2022-10-13T14:59:44.193Z,4.40
2022-10-13T15:02:13.120Z,4.57
2022-10-13T15:04:40.366Z,4.67
2022-10-13T15:07:08.117Z,4.70
2022-10-13T15:09:52.254Z,4.00
2022-10-13T15:12:23.189Z,4.50
2022-10-13T15:14:50.594Z,3.70
2022-10-13T15:17:17.925Z,3.77
2022-10-13T15:19:47.657Z,3.70
2022-10-13T15:22:14.951Z,3.93
2022-10-13T15:24:43.437Z,4.40
2022-10-13T15:27:10.626Z,3.67
2022-10-13T15:29:37.792Z,4.13
2022-10-13T15:32:18.474Z,4.20
2022-10-13T15:34:46.020Z,3.90
2022-10-13T15:37:13.598Z,4.03
2022-10-13T15:39:40.834Z,4.80
2022-10-13T15:42:08.311Z,4.70
2022-10-13T15:47:22.668Z,3.90
2022-10-13T15:49:49.919Z,4.90
2022-10-13T15:52:17.153Z,4.60
2022-10-13T15:54:44.451Z,4.40
2022-10-13T15:57:11.508Z,4.23
2022-10-13T15:59:38.807Z,5.33
2022-10-13T16:02:07.092Z,3.60
2022-10-13T16:04:37.811Z,5.13
2022-10-13T16:07:05.391Z,4.23
2022-10-13T16:09:32.569Z,4.60
2022-10-13T16:12:00.166Z,3.63
2022-10-13T16:14:27.312Z,3.67
2022-10-13T16:16:54.676Z,3.53
2022-10-13T16:19:21.963Z,4.43
2022-10-13T16:21:49.673Z,5.13
2022-10-13T16:24:16.739Z,5.83
2022-10-13T16:26:43.898Z,6.00
2022-10-13T16:29:10.933Z,5.03
2022-10-13T16:31:38.217Z,4.50
2022-10-13T16:34:06.187Z,5.40
2022-10-13T16:36:33.398Z,6.60
2022-10-13T16:39:02.944Z,5.73
2022-10-13T16:41:30.137Z,7.07
2022-10-13T16:43:57.740Z,6.47
2022-10-13T16:46:25.442Z,5.37
2022-10-13T16:48:52.973Z,5.40
2022-10-13T16:51:24.604Z,5.53
2022-10-13T16:53:58.652Z,4.90
2022-10-13T16:56:28.763Z,4.77
2022-10-13T16:59:05.271Z,5.60
2022-10-13T17:01:34.937Z,4.83
2022-10-13T17:04:04.329Z,4.93
2022-10-13T17:06:32.426Z,4.23
2022-10-13T17:09:03.002Z,5.63
2022-10-13T17:11:32.805Z,4.17
2022-10-13T17:14:01.471Z,4.93
2022-10-13T17:16:30.258Z,3.90
2022-10-13T17:18:58.072Z,4.50
2022-10-13T17:21:25.831Z,4.53
2022-10-13T17:23:56.161Z,5.27
2022-10-13T17:26:25.944Z,4.57
2022-10-13T17:28:54.368Z,5.30
2022-10-13T17:31:23.971Z,4.57
2022-10-13T17:33:51.976Z,5.33
2022-10-13T17:36:29.310Z,4.80
2022-10-13T17:39:06.423Z,5.07
2022-10-13T17:41:34.528Z,5.63
2022-10-13T17:44:02.736Z,5.07
2022-10-13T17:46:37.938Z,4.97
2022-10-13T17:49:10.859Z,4.70
2022-10-13T17:51:38.951Z,4.27
2022-10-13T17:54:11.435Z,4.53
2022-10-13T17:56:42.748Z,4.50
2022-10-13T17:59:10.484Z,5.00
2022-10-13T18:01:38.775Z,6.63
2022-10-13T18:04:12.492Z,5.77
2022-10-13T18:06:44.114Z,5.73
2022-10-13T18:09:19.266Z,5.47
2022-10-13T18:11:51.193Z,4.90
2022-10-13T18:14:22.889Z,5.40
2022-10-13T18:16:52.799Z,6.30
2022-10-13T18:19:26.987Z,5.53
2022-10-13T18:21:56.465Z,5.27
2022-10-13T18:24:25.478Z,4.07
2022-10-13T18:26:56.471Z,4.77
2022-10-13T18:29:24.783Z,4.93
2022-10-13T18:31:57.698Z,4.77
2022-10-13T18:34:25.676Z,5.93
2022-10-13T18:36:56.441Z,5.43
2022-10-13T18:39:29.721Z,5.07
2022-10-13T18:41:58.360Z,5.27
2022-10-13T18:44:26.546Z,5.70
2022-10-13T18:46:56.964Z,5.73
2022-10-13T18:49:34.143Z,5.33
2022-10-13T18:52:06.029Z,4.87
2022-10-13T18:54:34.464Z,5.37
2022-10-13T18:57:02.953Z,4.33
2022-10-13T18:59:32.309Z,5.33
2022-10-13T19:02:00.602Z,4.63
2022-10-13T19:04:28.541Z,5.70
2022-10-13T19:06:56.946Z,5.20
2022-10-13T19:09:26.824Z,4.63
2022-10-13T19:12:04.128Z,4.90
2022-10-13T19:14:32.041Z,5.77
2022-10-13T19:17:02.124Z,5.80
2022-10-13T19:19:30.382Z,4.10
2022-10-13T19:21:58.244Z,5.53
2022-10-13T19:24:25.397Z,5.70
2022-10-13T19:26:53.087Z,4.90
2022-10-13T19:29:25.623Z,5.00
2022-10-13T19:31:53.333Z,4.50
2022-10-13T19:34:20.545Z,5.77
2022-10-13T19:36:48.505Z,4.57
2022-10-13T19:39:23.446Z,4.90
2022-10-13T19:41:53.477Z,5.30
2022-10-13T19:44:21.731Z,4.63
2022-10-13T19:46:50.272Z,4.60
2022-10-13T19:49:20.835Z,5.80
2022-10-13T19:51:49.940Z,4.00
2022-10-13T19:54:19.531Z,4.83
2022-10-13T19:56:49.581Z,4.47
2022-10-13T19:59:20.038Z,3.77
2022-10-13T20:01:47.865Z,4.00
2022-10-13T20:04:20.648Z,4.67
2022-10-13T20:06:52.556Z,5.77
2022-10-13T20:09:20.690Z,4.53
2022-10-13T20:11:51.310Z,4.73
2022-10-13T20:14:19.654Z,3.33
2022-10-13T20:16:47.238Z,4.40
2022-10-13T20:19:19.287Z,4.33
2022-10-13T20:21:48.258Z,3.63
2022-10-13T20:24:15.974Z,4.80
2022-10-13T20:26:43.234Z,4.43
2022-10-13T20:29:10.650Z,4.90
2022-10-13T20:31:38.162Z,4.73
2022-10-13T20:34:05.843Z,4.30
2022-10-13T20:36:38.281Z,4.23
2022-10-13T20:39:06.287Z,3.13
2022-10-13T20:41:34.064Z,5.10
2022-10-13T20:44:02.272Z,4.40
2022-10-13T20:46:29.481Z,4.17
2022-10-13T20:49:13.494Z,4.57
2022-10-13T20:51:42.986Z,4.97
2022-10-13T20:54:12.788Z,4.17
2022-10-13T20:56:40.864Z,5.77
2022-10-13T20:59:12.518Z,3.77
2022-10-13T21:01:39.800Z,4.80
2022-10-13T21:04:07.380Z,4.93
2022-10-13T21:06:35.957Z,5.23
2022-10-13T21:09:05.772Z,4.23
2022-10-13T21:11:33.713Z,4.57
2022-10-13T21:14:02.948Z,5.03
2022-10-13T21:16:30.353Z,4.70
2022-10-13T21:18:59.115Z,5.40
2022-10-13T21:21:30.219Z,4.60
2022-10-13T21:24:02.412Z,6.27
2022-10-13T21:26:31.660Z,4.67
2022-10-13T21:29:00.139Z,4.43
2022-10-13T21:31:28.632Z,4.20
2022-10-13T21:33:56.929Z,4.40
2022-10-13T21:36:30.564Z,4.67
2022-10-13T21:39:04.771Z,4.43
2022-10-13T21:41:32.342Z,4.13
2022-10-13T21:43:59.772Z,5.03
2022-10-13T21:46:31.191Z,4.03
2022-10-13T21:49:03.213Z,5.27
2022-10-13T21:51:34.658Z,4.97
2022-10-13T21:54:11.671Z,4.07
2022-10-13T21:56:40.831Z,4.03
2022-10-13T21:59:10.285Z,4.10
2022-10-13T22:01:37.333Z,5.80
2022-10-13T22:04:06.304Z,3.93
2022-10-13T22:06:34.293Z,4.50
2022-10-13T22:09:04.142Z,3.70
2022-10-13T22:11:35.761Z,4.03
2022-10-13T22:14:04.349Z,5.30
2022-10-13T22:16:40.717Z,4.40
2022-10-13T22:19:08.199Z,4.77
2022-10-13T22:21:42.405Z,4.67
2022-10-13T22:24:14.048Z,4.23
2022-10-13T22:26:44.226Z,4.70
2022-10-13T22:29:16.092Z,4.87
2022-10-13T22:31:43.898Z,4.43
2022-10-13T22:34:13.069Z,4.90
2022-10-13T22:36:44.787Z,4.77
2022-10-13T22:39:13.665Z,3.60
2022-10-13T22:41:41.387Z,3.97
2022-10-13T22:44:09.088Z,3.87
2022-10-13T22:46:38.784Z,5.07
2022-10-13T22:49:07.699Z,4.63
2022-10-13T22:51:36.713Z,4.83
2022-10-13T22:54:04.858Z,4.13
2022-10-13T22:56:34.501Z,3.47
2022-10-13T22:59:07.074Z,4.13
2022-10-13T23:01:34.651Z,3.90
2022-10-13T23:04:02.274Z,3.27
2022-10-13T23:06:33.782Z,4.23
2022-10-13T23:09:04.511Z,3.47
2022-10-13T23:11:32.181Z,3.73
2022-10-13T23:13:59.510Z,4.13
2022-10-13T23:16:27.548Z,3.47
2022-10-13T23:18:55.073Z,3.23
2022-10-13T23:21:26.319Z,3.73
2022-10-13T23:24:04.087Z,4.00
2022-10-13T23:26:32.998Z,5.00
2022-10-13T23:29:00.772Z,3.67
2022-10-13T23:31:29.351Z,3.97
2022-10-13T23:33:57.634Z,3.83
2022-10-13T23:36:28.577Z,4.70
2022-10-13T23:39:07.579Z,4.50
2022-10-13T23:41:35.212Z,2.93
2022-10-13T23:44:03.088Z,4.57
2022-10-13T23:46:30.339Z,3.10
2022-10-13T23:48:57.471Z,3.80
2022-10-13T23:51:26.142Z,3.73
2022-10-13T23:53:55.819Z,4.13
2022-10-13T23:56:23.895Z,3.90
2022-10-13T23:58:51.023Z,3.33
